Time;durP1;ratioP1;P1;durP2;ratioP2;P2;SDS_P1;SDS_P2;PMS_P1;PMS_P2;Temp;Humidity;BMP_temperature;BMP_pressure;BME280_temperature;BME280_humidity;BME280_pressure;Samples;Min_cycle;Max_cycle;Signal;HPM_P1;HPM_P2
2021/11/29 00:01:51;;;;;;;0.65;0.65;;;;;;;;;;1859128;75;26261;-28
2021/11/29 00:04:19;;;;;;;0.60;0.60;;;;;;;;;;1853544;77;26349;-28
2021/11/29 00:06:47;;;;;;;1.27;0.60;;;;;;;;;;1859006;75;26265;-30
2021/11/29 00:09:14;;;;;;;0.62;0.62;;;;;;;;;;1842575;75;26252;-28
2021/11/29 00:11:42;;;;;;;0.60;0.60;;;;;;;;;;1840866;75;26761;-28
2021/11/29 00:14:09;;;;;;;0.60;0.60;;;;;;;;;;1839636;75;26284;-29
2021/11/29 00:16:36;;;;;;;0.60;0.60;;;;;;;;;;1848082;75;26281;-29
2021/11/29 00:19:05;;;;;;;0.55;0.55;;;;;;;;;;1852431;77;26273;-29
2021/11/29 00:21:33;;;;;;;0.50;0.50;;;;;;;;;;1844624;75;26568;-28
2021/11/29 00:24:01;;;;;;;0.50;0.50;;;;;;;;;;1856318;77;25565;-28
2021/11/29 00:26:29;;;;;;;0.50;0.50;;;;;;;;;;1846534;76;26293;-28
2021/11/29 00:28:57;;;;;;;0.50;0.50;;;;;;;;;;1855601;75;26668;-28
2021/11/29 00:31:24;;;;;;;0.65;0.65;;;;;;;;;;1855422;75;26284;-28
2021/11/29 00:33:52;;;;;;;0.90;0.40;;;;;;;;;;1853209;76;26304;-28
2021/11/29 00:36:20;;;;;;;0.40;0.40;;;;;;;;;;1847310;75;26264;-29
2021/11/29 00:38:47;;;;;;;0.60;0.60;;;;;;;;;;1858837;75;26794;-28
2021/11/29 00:41:15;;;;;;;0.55;0.55;;;;;;;;;;1844862;75;26303;-28
2021/11/29 00:43:43;;;;;;;0.50;0.50;;;;;;;;;;1854209;77;26218;-29
2021/11/29 00:46:10;;;;;;;0.50;0.50;;;;;;;;;;1836934;76;26856;-29
2021/11/29 00:48:38;;;;;;;0.55;0.55;;;;;;;;;;1846385;76;26331;-28
2021/11/29 00:51:05;;;;;;;0.57;0.57;;;;;;;;;;1851961;76;26790;-29
2021/11/29 00:53:33;;;;;;;0.62;0.62;;;;;;;;;;1857300;76;26343;-29
2021/11/29 00:56:00;;;;;;;0.50;0.50;;;;;;;;;;1847747;76;26572;-29
2021/11/29 00:58:27;;;;;;;0.50;0.50;;;;;;;;;;1846384;76;26327;-28
2021/11/29 01:00:56;;;;;;;0.50;0.50;;;;;;;;;;1847953;76;26335;-28
2021/11/29 01:03:24;;;;;;;0.50;0.50;;;;;;;;;;1835916;76;26332;-28
2021/11/29 01:05:51;;;;;;;0.70;0.70;;;;;;;;;;1831429;77;26834;-28
2021/11/29 01:08:18;;;;;;;1.20;0.47;;;;;;;;;;1830460;77;26995;-29
2021/11/29 01:10:45;;;;;;;0.72;0.60;;;;;;;;;;1837994;76;26253;-28
2021/11/29 01:13:13;;;;;;;0.47;0.47;;;;;;;;;;1838103;76;26354;-30
2021/11/29 01:15:40;;;;;;;0.60;0.60;;;;;;;;;;1835239;77;26335;-29
2021/11/29 01:18:09;;;;;;;0.62;0.47;;;;;;;;;;1848954;76;26261;-29
2021/11/29 01:20:37;;;;;;;0.75;0.62;;;;;;;;;;1831904;76;26263;-29
2021/11/29 01:23:05;;;;;;;0.40;0.40;;;;;;;;;;1831355;76;26689;-29
2021/11/29 01:25:33;;;;;;;0.50;0.50;;;;;;;;;;1839428;76;26241;-29
2021/11/29 01:28:01;;;;;;;0.57;0.57;;;;;;;;;;1848754;76;26690;-28
2021/11/29 01:30:28;;;;;;;0.50;0.50;;;;;;;;;;1847814;76;26272;-29
2021/11/29 01:32:56;;;;;;;0.50;0.50;;;;;;;;;;1849403;77;26839;-28
2021/11/29 01:35:23;;;;;;;0.50;0.50;;;;;;;;;;1844004;77;26296;-29
2021/11/29 01:37:50;;;;;;;0.68;0.68;;;;;;;;;;1850124;76;26202;-28
2021/11/29 01:40:18;;;;;;;0.45;0.45;;;;;;;;;;1838261;77;26807;-29
2021/11/29 01:43:03;;;;;;;1.32;0.47;;;;;;;;;;1838198;76;26214;-28
2021/11/29 01:45:32;;;;;;;0.30;0.30;;;;;;;;;;1847800;76;26410;-28
2021/11/29 01:47:59;;;;;;;0.60;0.60;;;;;;;;;;1842877;77;26334;-29
2021/11/29 01:50:27;;;;;;;0.60;0.60;;;;;;;;;;1855955;75;26318;-28
2021/11/29 01:52:54;;;;;;;0.72;0.60;;;;;;;;;;1854426;75;26337;-29
2021/11/29 01:55:22;;;;;;;0.55;0.55;;;;;;;;;;1855396;75;26245;-28
2021/11/29 01:57:49;;;;;;;0.50;0.50;;;;;;;;;;1854502;76;26241;-28
2021/11/29 02:00:18;;;;;;;0.40;0.40;;;;;;;;;;1842944;75;26646;-29
2021/11/29 02:02:47;;;;;;;0.35;0.35;;;;;;;;;;1860529;75;26756;-28
2021/11/29 02:05:15;;;;;;;0.40;0.40;;;;;;;;;;1852544;75;26477;-29
2021/11/29 02:07:42;;;;;;;0.55;0.50;;;;;;;;;;1859495;76;26233;-28
2021/11/29 02:10:10;;;;;;;0.50;0.50;;;;;;;;;;1848503;77;26764;-28
2021/11/29 02:12:37;;;;;;;0.50;0.50;;;;;;;;;;1847997;77;26312;-28
2021/11/29 02:15:05;;;;;;;0.37;0.37;;;;;;;;;;1852960;77;26786;-28
2021/11/29 02:17:32;;;;;;;0.50;0.50;;;;;;;;;;1843279;77;26720;-28
2021/11/29 02:20:01;;;;;;;0.50;0.50;;;;;;;;;;1853372;75;26288;-29
2021/11/29 02:22:28;;;;;;;0.50;0.50;;;;;;;;;;1835525;77;26288;-29
2021/11/29 02:24:55;;;;;;;1.67;0.50;;;;;;;;;;1847230;76;26304;-29
2021/11/29 02:27:23;;;;;;;0.45;0.45;;;;;;;;;;1853882;75;26915;-29
2021/11/29 02:29:54;;;;;;;0.30;0.30;;;;;;;;;;1851922;76;26754;-28
2021/11/29 02:32:22;;;;;;;0.45;0.45;;;;;;;;;;1858354;76;26721;-29
2021/11/29 02:34:49;;;;;;;0.40;0.40;;;;;;;;;;1854480;76;26217;-28
2021/11/29 02:37:17;;;;;;;0.30;0.30;;;;;;;;;;1854244;75;26684;-28
2021/11/29 02:39:44;;;;;;;0.40;0.40;;;;;;;;;;1849557;75;26277;-28
2021/11/29 02:42:13;;;;;;;0.30;0.30;;;;;;;;;;1849229;77;26280;-29
2021/11/29 02:44:41;;;;;;;0.50;0.50;;;;;;;;;;1852214;77;26255;-30
2021/11/29 02:47:09;;;;;;;0.40;0.40;;;;;;;;;;1835493;76;26301;-29
2021/11/29 02:49:36;;;;;;;0.50;0.50;;;;;;;;;;1842720;76;26251;-28
2021/11/29 02:52:05;;;;;;;0.40;0.40;;;;;;;;;;1838518;77;26273;-28
2021/11/29 02:54:34;;;;;;;0.42;0.42;;;;;;;;;;1843291;77;26258;-29
2021/11/29 02:57:05;;;;;;;0.50;0.50;;;;;;;;;;1845731;77;26249;-29
2021/11/29 02:59:34;;;;;;;0.30;0.30;;;;;;;;;;1836260;77;26253;-28
2021/11/29 03:02:03;;;;;;;0.35;0.35;;;;;;;;;;1841983;76;26653;-28
2021/11/29 03:04:31;;;;;;;0.30;0.30;;;;;;;;;;1841283;76;26692;-28
2021/11/29 03:06:59;;;;;;;0.35;0.35;;;;;;;;;;1834273;76;27387;-28
2021/11/29 03:09:27;;;;;;;0.50;0.50;;;;;;;;;;1840033;77;26278;-29
2021/11/29 03:11:55;;;;;;;0.45;0.45;;;;;;;;;;1836252;76;26259;-28
2021/11/29 03:14:23;;;;;;;0.40;0.40;;;;;;;;;;1838238;76;26249;-28
2021/11/29 03:16:53;;;;;;;0.20;0.20;;;;;;;;;;1837430;76;26261;-28
2021/11/29 03:19:21;;;;;;;0.50;0.50;;;;;;;;;;1846234;76;26748;-28
2021/11/29 03:21:49;;;;;;;0.62;0.30;;;;;;;;;;1846752;76;26246;-29
2021/11/29 03:24:16;;;;;;;0.40;0.40;;;;;;;;;;1836885;77;25613;-29
2021/11/29 03:26:44;;;;;;;0.40;0.40;;;;;;;;;;1843780;76;26382;-28
2021/11/29 03:29:13;;;;;;;0.88;0.88;;;;;;;;;;1846542;76;26270;-28
2021/11/29 03:31:41;;;;;;;0.40;0.40;;;;;;;;;;1839331;76;26273;-28
2021/11/29 03:34:10;;;;;;;0.40;0.40;;;;;;;;;;1835984;77;26710;-28
2021/11/29 03:36:39;;;;;;;0.37;0.37;;;;;;;;;;1840346;76;26415;-29
2021/11/29 03:39:08;;;;;;;3.70;0.50;;;;;;;;;;1842463;77;26262;-29
2021/11/29 03:41:36;;;;;;;0.85;0.40;;;;;;;;;;1841630;76;26347;-29
2021/11/29 03:44:03;;;;;;;0.33;0.33;;;;;;;;;;1845447;76;26713;-29
2021/11/29 03:46:31;;;;;;;0.20;0.20;;;;;;;;;;1847041;76;26293;-28
2021/11/29 03:48:58;;;;;;;0.35;0.35;;;;;;;;;;1845259;76;26265;-29
2021/11/29 03:51:25;;;;;;;0.40;0.40;;;;;;;;;;1827997;76;26325;-29
2021/11/29 03:53:53;;;;;;;0.33;0.33;;;;;;;;;;1841924;76;26309;-28
2021/11/29 03:56:20;;;;;;;0.35;0.35;;;;;;;;;;1846724;77;26783;-29
2021/11/29 03:58:47;;;;;;;0.40;0.40;;;;;;;;;;1845799;76;26257;-29
2021/11/29 04:01:15;;;;;;;1.02;0.20;;;;;;;;;;1842782;76;26796;-29
2021/11/29 04:03:43;;;;;;;0.40;0.40;;;;;;;;;;1846526;77;26344;-29
2021/11/29 04:06:10;;;;;;;1.30;0.40;;;;;;;;;;1831906;77;26237;-28
2021/11/29 04:08:38;;;;;;;1.55;0.50;;;;;;;;;;1843234;76;26261;-29
2021/11/29 04:11:05;;;;;;;0.40;0.40;;;;;;;;;;1846505;77;26695;-28
2021/11/29 04:13:33;;;;;;;0.40;0.40;;;;;;;;;;1841156;77;26749;-29
2021/11/29 04:16:01;;;;;;;1.77;0.50;;;;;;;;;;1835717;76;27741;-28
2021/11/29 04:18:28;;;;;;;1.32;0.40;;;;;;;;;;1837395;77;26261;-29
2021/11/29 04:20:56;;;;;;;0.50;0.50;;;;;;;;;;1831455;77;26277;-30
2021/11/29 04:23:24;;;;;;;0.40;0.40;;;;;;;;;;1838170;76;26347;-28
2021/11/29 04:26:00;;;;;;;0.60;0.60;;;;;;;;;;1847236;77;26286;-29
2021/11/29 04:28:27;;;;;;;0.55;0.55;;;;;;;;;;1837694;76;26303;-29
2021/11/29 04:30:54;;;;;;;0.50;0.50;;;;;;;;;;1842013;76;26262;-29
2021/11/29 04:33:22;;;;;;;1.70;0.60;;;;;;;;;;1827094;76;26351;-28
2021/11/29 04:35:49;;;;;;;0.57;0.57;;;;;;;;;;1846220;77;26604;-29
2021/11/29 04:38:17;;;;;;;0.55;0.55;;;;;;;;;;1839366;77;26323;-29
2021/11/29 04:40:44;;;;;;;1.20;0.47;;;;;;;;;;1843861;76;26301;-28
2021/11/29 04:43:12;;;;;;;2.35;0.50;;;;;;;;;;1838973;76;26265;-28
2021/11/29 04:45:40;;;;;;;1.77;0.40;;;;;;;;;;1842768;76;26282;-29
2021/11/29 04:48:07;;;;;;;0.50;0.50;;;;;;;;;;1837596;76;26795;-28
2021/11/29 04:50:34;;;;;;;0.50;0.50;;;;;;;;;;1844624;76;26254;-29
2021/11/29 04:53:02;;;;;;;0.50;0.50;;;;;;;;;;1843903;77;27597;-28
2021/11/29 04:55:30;;;;;;;1.75;0.40;;;;;;;;;;1839007;76;26296;-29
2021/11/29 04:57:57;;;;;;;0.75;0.40;;;;;;;;;;1833342;76;26854;-28
2021/11/29 05:00:25;;;;;;;0.42;0.42;;;;;;;;;;1841090;76;26336;-28
2021/11/29 05:02:52;;;;;;;0.40;0.40;;;;;;;;;;1837592;76;26362;-29
2021/11/29 05:05:20;;;;;;;2.08;0.50;;;;;;;;;;1837449;76;26289;-28
2021/11/29 05:07:47;;;;;;;0.50;0.50;;;;;;;;;;1835535;76;26912;-28
2021/11/29 05:10:14;;;;;;;0.40;0.40;;;;;;;;;;1836142;76;26467;-28
2021/11/29 05:12:41;;;;;;;0.65;0.33;;;;;;;;;;1846595;76;26262;-29
2021/11/29 05:15:09;;;;;;;0.40;0.40;;;;;;;;;;1834330;76;26289;-29
2021/11/29 05:17:37;;;;;;;0.50;0.50;;;;;;;;;;1841493;76;26405;-28
2021/11/29 05:20:05;;;;;;;0.45;0.45;;;;;;;;;;1839076;76;26308;-28
2021/11/29 05:22:32;;;;;;;0.40;0.40;;;;;;;;;;1831372;76;27358;-28
2021/11/29 05:25:00;;;;;;;0.62;0.60;;;;;;;;;;1834294;76;26198;-29
2021/11/29 05:27:27;;;;;;;1.00;0.47;;;;;;;;;;1835992;76;26387;-28
2021/11/29 05:29:54;;;;;;;0.50;0.50;;;;;;;;;;1835397;76;26269;-28
2021/11/29 05:32:22;;;;;;;0.53;0.53;;;;;;;;;;1842378;76;26218;-28
2021/11/29 05:34:49;;;;;;;0.72;0.60;;;;;;;;;;1842231;77;26526;-28
2021/11/29 05:37:16;;;;;;;1.27;0.40;;;;;;;;;;1844441;76;26324;-30
2021/11/29 05:39:44;;;;;;;0.30;0.30;;;;;;;;;;1842359;76;26750;-29
2021/11/29 05:42:11;;;;;;;1.45;0.40;;;;;;;;;;1840641;76;26343;-29
2021/11/29 05:44:38;;;;;;;0.60;0.50;;;;;;;;;;1845883;76;25696;-28
2021/11/29 05:47:06;;;;;;;2.02;0.47;;;;;;;;;;1833694;76;26750;-29
2021/11/29 05:49:33;;;;;;;0.40;0.40;;;;;;;;;;1843530;76;26272;-29
2021/11/29 05:52:00;;;;;;;1.37;0.53;;;;;;;;;;1842205;76;26194;-29
2021/11/29 05:54:28;;;;;;;0.65;0.37;;;;;;;;;;1842350;76;26198;-28
2021/11/29 05:56:56;;;;;;;2.05;0.62;;;;;;;;;;1847044;76;26297;-29
2021/11/29 05:59:24;;;;;;;0.45;0.45;;;;;;;;;;1835718;76;26319;-28
2021/11/29 06:01:51;;;;;;;2.65;0.50;;;;;;;;;;1842314;76;26659;-28
2021/11/29 06:04:18;;;;;;;3.65;0.60;;;;;;;;;;1843509;76;26273;-28
2021/11/29 06:06:45;;;;;;;3.35;0.57;;;;;;;;;;1843066;76;26319;-29
2021/11/29 06:09:13;;;;;;;0.75;0.55;;;;;;;;;;1836323;76;26792;-29
2021/11/29 06:11:40;;;;;;;0.60;0.60;;;;;;;;;;1835271;76;26368;-28
2021/11/29 06:14:08;;;;;;;0.68;0.50;;;;;;;;;;1840850;76;26713;-28
2021/11/29 06:16:36;;;;;;;1.37;0.60;;;;;;;;;;1847143;76;26343;-28
2021/11/29 06:19:04;;;;;;;0.50;0.50;;;;;;;;;;1844799;76;26293;-29
2021/11/29 06:21:31;;;;;;;2.27;0.70;;;;;;;;;;1841928;76;25899;-29
2021/11/29 06:23:59;;;;;;;2.47;0.98;;;;;;;;;;1841423;76;26328;-28
2021/11/29 06:26:26;;;;;;;1.60;0.65;;;;;;;;;;1837013;76;26242;-28
2021/11/29 06:28:54;;;;;;;6.08;0.80;;;;;;;;;;1843619;76;26764;-28
2021/11/29 06:31:21;;;;;;;1.62;0.80;;;;;;;;;;1838399;76;26269;-29
2021/11/29 06:33:48;;;;;;;1.65;0.68;;;;;;;;;;1833465;76;26347;-28
2021/11/29 06:36:16;;;;;;;7.92;0.90;;;;;;;;;;1839037;76;26375;-28
2021/11/29 06:38:44;;;;;;;5.22;0.70;;;;;;;;;;1844657;76;26628;-28
2021/11/29 06:41:11;;;;;;;2.87;0.70;;;;;;;;;;1842956;76;26266;-30
2021/11/29 06:43:38;;;;;;;3.20;0.70;;;;;;;;;;1840252;76;26306;-30
2021/11/29 06:46:06;;;;;;;5.42;0.70;;;;;;;;;;1837338;76;26265;-29
2021/11/29 06:48:33;;;;;;;3.40;0.70;;;;;;;;;;1839597;76;26332;-28
2021/11/29 06:51:00;;;;;;;4.03;0.70;;;;;;;;;;1841724;76;26222;-28
2021/11/29 06:53:28;;;;;;;0.95;0.55;;;;;;;;;;1841884;77;26253;-29
2021/11/29 06:55:56;;;;;;;2.98;0.65;;;;;;;;;;1845940;76;26949;-29
2021/11/29 06:58:24;;;;;;;3.15;0.78;;;;;;;;;;1841402;76;26374;-29
2021/11/29 07:00:52;;;;;;;0.60;0.60;;;;;;;;;;1844313;76;26277;-29
2021/11/29 07:03:19;;;;;;;1.42;0.78;;;;;;;;;;1842764;76;26250;-29
2021/11/29 07:05:49;;;;;;;2.90;0.70;;;;;;;;;;1839704;76;26242;-29
2021/11/29 07:08:18;;;;;;;0.93;0.70;;;;;;;;;;1832548;76;26320;-29
2021/11/29 07:10:47;;;;;;;2.80;0.80;;;;;;;;;;1838395;76;26277;-28
2021/11/29 07:13:16;;;;;;;1.32;0.60;;;;;;;;;;1835514;76;26269;-28
2021/11/29 07:15:44;;;;;;;1.52;0.70;;;;;;;;;;1839128;76;26335;-30
2021/11/29 07:18:13;;;;;;;2.25;0.80;;;;;;;;;;1839399;76;26206;-29
2021/11/29 07:20:41;;;;;;;1.00;0.60;;;;;;;;;;1839146;76;26258;-29
2021/11/29 07:23:08;;;;;;;1.35;0.60;;;;;;;;;;1842969;76;26765;-29
2021/11/29 07:25:35;;;;;;;2.30;0.70;;;;;;;;;;1839591;76;26285;-30
2021/11/29 07:28:03;;;;;;;0.80;0.70;;;;;;;;;;1796092;77;26813;-31
2021/11/29 07:30:31;;;;;;;1.55;0.70;;;;;;;;;;1792313;78;26282;-29
2021/11/29 07:32:58;;;;;;;0.70;0.70;;;;;;;;;;1836032;76;26221;-30
2021/11/29 07:35:27;;;;;;;0.98;0.62;;;;;;;;;;1843109;76;26251;-30
2021/11/29 07:37:55;;;;;;;2.17;0.88;;;;;;;;;;1830332;76;26757;-31
2021/11/29 07:40:31;;;;;;;0.93;0.78;;;;;;;;;;1842630;76;26351;-30
2021/11/29 07:43:00;;;;;;;1.87;0.80;;;;;;;;;;1837836;76;26356;-31
2021/11/29 07:45:27;;;;;;;0.80;0.80;;;;;;;;;;1844671;76;26262;-30
2021/11/29 07:47:55;;;;;;;0.90;0.90;;;;;;;;;;1846786;76;26305;-30
2021/11/29 07:50:22;;;;;;;1.75;0.90;;;;;;;;;;1840482;76;26783;-30
2021/11/29 07:52:50;;;;;;;1.70;1.00;;;;;;;;;;1837288;76;26304;-30
2021/11/29 07:55:21;;;;;;;0.80;0.80;;;;;;;;;;1836663;76;26328;-29
2021/11/29 07:57:47;;;;;;;1.07;1.00;;;;;;;;;;1836272;76;26314;-29
2021/11/29 08:00:18;;;;;;;2.42;1.10;;;;;;;;;;1833876;76;27440;-29
2021/11/29 08:02:49;;;;;;;0.90;0.90;;;;;;;;;;1844140;76;26643;-28
2021/11/29 08:05:19;;;;;;;0.85;0.85;;;;;;;;;;1848240;76;26913;-28
2021/11/29 08:07:46;;;;;;;0.80;0.80;;;;;;;;;;1840385;76;26285;-28
2021/11/29 08:10:14;;;;;;;1.32;0.90;;;;;;;;;;1825595;76;28163;-30
2021/11/29 08:12:41;;;;;;;1.00;1.00;;;;;;;;;;1836770;76;26241;-31
2021/11/29 08:15:09;;;;;;;0.80;0.80;;;;;;;;;;1839049;76;26841;-29
2021/11/29 08:17:37;;;;;;;0.90;0.90;;;;;;;;;;1837519;76;26663;-30
2021/11/29 08:20:05;;;;;;;1.37;0.80;;;;;;;;;;1827355;76;28134;-29
2021/11/29 08:22:32;;;;;;;0.80;0.80;;;;;;;;;;1837292;76;26292;-30
2021/11/29 08:25:00;;;;;;;0.70;0.70;;;;;;;;;;1839350;76;26714;-29
2021/11/29 08:27:28;;;;;;;0.83;0.80;;;;;;;;;;1825187;76;28205;-29
2021/11/29 08:29:55;;;;;;;0.82;0.82;;;;;;;;;;1841136;76;26290;-28
2021/11/29 08:32:23;;;;;;;0.90;0.90;;;;;;;;;;1827857;76;27476;-29
2021/11/29 08:34:50;;;;;;;2.60;0.78;;;;;;;;;;1846244;76;26358;-29
2021/11/29 08:37:17;;;;;;;2.08;0.80;;;;;;;;;;1845640;76;26779;-29
2021/11/29 08:39:45;;;;;;;2.58;0.70;;;;;;;;;;1836392;76;26880;-30
2021/11/29 08:42:12;;;;;;;1.25;0.65;;;;;;;;;;1844116;76;26300;-31
2021/11/29 08:44:39;;;;;;;1.20;0.98;;;;;;;;;;1834224;76;25758;-29
2021/11/29 08:47:07;;;;;;;2.60;1.00;;;;;;;;;;1836205;76;28209;-29
2021/11/29 08:49:34;;;;;;;1.72;1.00;;;;;;;;;;1831029;76;28211;-26
2021/11/29 08:52:02;;;;;;;3.77;1.27;;;;;;;;;;1831799;76;25784;-27
2021/11/29 08:54:29;;;;;;;1.85;1.00;;;;;;;;;;1843438;76;26255;-26
2021/11/29 08:56:56;;;;;;;3.35;0.90;;;;;;;;;;1843532;76;26265;-25
2021/11/29 08:59:24;;;;;;;0.98;0.70;;;;;;;;;;1847177;76;26249;-25
2021/11/29 09:01:52;;;;;;;1.85;0.70;;;;;;;;;;1839147;76;26367;-25
2021/11/29 09:04:20;;;;;;;0.60;0.60;;;;;;;;;;1841897;76;26305;-26
2021/11/29 09:06:47;;;;;;;2.37;1.32;;;;;;;;;;1835215;76;26736;-29
2021/11/29 09:09:14;;;;;;;0.57;0.57;;;;;;;;;;1841407;76;26269;-29
2021/11/29 09:11:42;;;;;;;1.25;0.62;;;;;;;;;;1836464;76;26764;-30
2021/11/29 09:14:10;;;;;;;0.60;0.60;;;;;;;;;;1835859;76;26315;-29
2021/11/29 09:16:38;;;;;;;0.70;0.70;;;;;;;;;;1845048;76;26261;-29
2021/11/29 09:19:06;;;;;;;1.40;0.65;;;;;;;;;;1841377;76;26221;-29
2021/11/29 09:21:34;;;;;;;0.60;0.60;;;;;;;;;;1837327;76;26254;-29
2021/11/29 09:24:01;;;;;;;1.00;0.50;;;;;;;;;;1840610;76;26252;-29
2021/11/29 09:26:29;;;;;;;1.65;0.60;;;;;;;;;;1836668;76;27617;-30
2021/11/29 09:28:56;;;;;;;0.70;0.70;;;;;;;;;;1833510;76;26296;-27
2021/11/29 09:31:25;;;;;;;0.72;0.72;;;;;;;;;;1838578;76;26801;-28
2021/11/29 09:33:53;;;;;;;0.70;0.70;;;;;;;;;;1835734;76;26848;-28
2021/11/29 09:36:20;;;;;;;0.80;0.80;;;;;;;;;;1840747;76;26247;-27
2021/11/29 09:38:48;;;;;;;0.55;0.55;;;;;;;;;;1841150;77;26571;-28
2021/11/29 09:41:18;;;;;;;0.60;0.60;;;;;;;;;;1838476;76;26872;-28
2021/11/29 09:43:44;;;;;;;0.60;0.60;;;;;;;;;;1845914;76;26374;-28
2021/11/29 09:46:12;;;;;;;0.70;0.70;;;;;;;;;;1845420;76;26277;-28
2021/11/29 09:48:39;;;;;;;0.55;0.55;;;;;;;;;;1842783;76;26281;-28
2021/11/29 09:51:07;;;;;;;0.57;0.57;;;;;;;;;;1841428;76;26320;-28
2021/11/29 09:53:34;;;;;;;0.50;0.50;;;;;;;;;;1845508;76;26700;-30
2021/11/29 09:56:02;;;;;;;0.50;0.50;;;;;;;;;;1837922;76;26206;-29
2021/11/29 09:58:29;;;;;;;0.50;0.50;;;;;;;;;;1843788;76;26251;-28
2021/11/29 10:00:59;;;;;;;0.60;0.60;;;;;;;;;;1840661;76;26331;-29
2021/11/29 10:03:27;;;;;;;1.12;0.50;;;;;;;;;;1836670;76;26733;-28
2021/11/29 10:05:54;;;;;;;0.60;0.50;;;;;;;;;;1832914;76;26207;-28
2021/11/29 10:08:38;;;;;;;0.50;0.50;;;;;;;;;;1846659;76;26674;-28
2021/11/29 10:11:05;;;;;;;0.60;0.60;;;;;;;;;;1833875;77;26299;-28
2021/11/29 10:13:33;;;;;;;5.20;0.62;;;;;;;;;;1835616;77;26453;-29
2021/11/29 10:16:02;;;;;;;0.40;0.40;;;;;;;;;;1830539;77;26199;-30
2021/11/29 10:18:30;;;;;;;0.57;0.57;;;;;;;;;;1842471;77;26281;-28
2021/11/29 10:20:59;;;;;;;0.55;0.55;;;;;;;;;;1835100;76;26342;-29
2021/11/29 10:23:28;;;;;;;0.60;0.60;;;;;;;;;;1845796;76;26316;-28
2021/11/29 10:25:55;;;;;;;0.50;0.50;;;;;;;;;;1822157;77;26266;-28
2021/11/29 10:28:24;;;;;;;0.47;0.47;;;;;;;;;;1834074;77;26937;-28
2021/11/29 10:31:04;;;;;;;0.60;0.60;;;;;;;;;;1842979;76;26862;-29
2021/11/29 10:33:32;;;;;;;0.50;0.50;;;;;;;;;;1845321;76;26313;-28
2021/11/29 10:36:13;;;;;;;0.40;0.40;;;;;;;;;;1842943;76;26508;-28
2021/11/29 10:38:41;;;;;;;0.57;0.57;;;;;;;;;;1842982;76;26661;-28
2021/11/29 10:41:09;;;;;;;0.60;0.60;;;;;;;;;;1842324;76;26317;-29
2021/11/29 10:43:37;;;;;;;0.50;0.50;;;;;;;;;;1846475;76;26194;-28
2021/11/29 10:46:17;;;;;;;0.47;0.47;;;;;;;;;;1844839;76;26769;-28
2021/11/29 10:48:45;;;;;;;0.78;0.70;;;;;;;;;;1845994;76;26246;-28
2021/11/29 10:51:14;;;;;;;1.00;0.75;;;;;;;;;;1843227;76;26397;-28
2021/11/29 10:53:45;;;;;;;0.50;0.50;;;;;;;;;;1843059;76;26304;-28
2021/11/29 10:56:13;;;;;;;0.60;0.60;;;;;;;;;;1841097;76;26363;-29
2021/11/29 10:58:41;;;;;;;1.05;0.75;;;;;;;;;;1843963;76;27235;-28
2021/11/29 11:01:09;;;;;;;0.65;0.60;;;;;;;;;;1842601;76;26246;-28
2021/11/29 11:03:52;;;;;;;0.60;0.60;;;;;;;;;;1833171;76;26840;-28
2021/11/29 11:06:27;;;;;;;1.15;0.60;;;;;;;;;;1844126;76;26246;-28
2021/11/29 11:08:55;;;;;;;1.22;0.70;;;;;;;;;;1840896;76;27396;-28
2021/11/29 11:11:42;;;;;;;1.02;0.90;;;;;;;;;;1844691;76;26313;-28
2021/11/29 11:14:11;;;;;;;1.27;0.60;;;;;;;;;;1841318;76;26247;-28
2021/11/29 11:16:40;;;;;;;1.67;0.80;;;;;;;;;;1841675;76;26324;-29
2021/11/29 11:19:09;;;;;;;0.80;0.80;;;;;;;;;;1840915;76;26273;-29
2021/11/29 11:21:36;;;;;;;0.70;0.70;;;;;;;;;;1839334;76;26339;-29
2021/11/29 11:24:20;;;;;;;1.22;0.80;;;;;;;;;;1842033;76;26823;-29
2021/11/29 11:26:48;;;;;;;0.80;0.80;;;;;;;;;;1837036;76;26226;-29
2021/11/29 11:29:16;;;;;;;0.70;0.70;;;;;;;;;;1837923;76;26284;-29
2021/11/29 11:31:43;;;;;;;0.60;0.60;;;;;;;;;;1845119;76;26253;-28
2021/11/29 11:34:10;;;;;;;1.52;0.80;;;;;;;;;;1850910;76;26264;-29
2021/11/29 11:36:38;;;;;;;0.62;0.62;;;;;;;;;;1837922;76;26309;-29
2021/11/29 11:39:05;;;;;;;1.57;0.72;;;;;;;;;;1841084;77;26262;-28
2021/11/29 11:41:33;;;;;;;0.62;0.62;;;;;;;;;;1835513;76;26336;-29
2021/11/29 11:44:02;;;;;;;0.80;0.80;;;;;;;;;;1826537;77;26320;-29
2021/11/29 11:46:30;;;;;;;0.93;0.90;;;;;;;;;;1831915;76;26254;-29
2021/11/29 11:48:58;;;;;;;0.70;0.70;;;;;;;;;;1842148;76;26797;-29
2021/11/29 11:51:26;;;;;;;0.75;0.70;;;;;;;;;;1836873;75;26348;-29
2021/11/29 11:53:54;;;;;;;0.60;0.60;;;;;;;;;;1858114;75;26266;-28
2021/11/29 11:56:21;;;;;;;0.55;0.55;;;;;;;;;;1858611;75;26245;-29
2021/11/29 11:58:53;;;;;;;0.60;0.60;;;;;;;;;;1853849;75;26768;-30
2021/11/29 12:01:22;;;;;;;0.72;0.70;;;;;;;;;;1858555;75;26289;-31
2021/11/29 12:03:50;;;;;;;1.65;0.70;;;;;;;;;;1851043;75;26428;-32
2021/11/29 12:06:18;;;;;;;2.85;0.50;;;;;;;;;;1856493;75;26269;-29
2021/11/29 12:08:47;;;;;;;0.50;0.50;;;;;;;;;;1844226;75;26322;-28
2021/11/29 12:11:29;;;;;;;0.80;0.62;;;;;;;;;;1851702;75;26888;-29
2021/11/29 12:14:17;;;;;;;1.55;0.65;;;;;;;;;;1852768;75;26296;-29
2021/11/29 12:16:46;;;;;;;0.62;0.62;;;;;;;;;;1859767;75;27331;-28
2021/11/29 12:19:14;;;;;;;0.60;0.60;;;;;;;;;;1855345;75;26288;-28
2021/11/29 12:21:43;;;;;;;0.53;0.53;;;;;;;;;;1856203;75;26310;-29
2021/11/29 12:24:13;;;;;;;0.57;0.57;;;;;;;;;;1859271;75;26434;-28
2021/11/29 12:26:48;;;;;;;0.57;0.57;;;;;;;;;;1851924;75;26759;-28
2021/11/29 12:29:24;;;;;;;0.50;0.50;;;;;;;;;;1851842;75;26330;-27
2021/11/29 12:32:04;;;;;;;0.50;0.50;;;;;;;;;;1853190;75;26329;-29
2021/11/29 12:34:52;;;;;;;0.53;0.53;;;;;;;;;;1856567;75;26283;-29
2021/11/29 12:37:36;;;;;;;0.40;0.40;;;;;;;;;;1857822;75;26317;-28
2021/11/29 12:40:13;;;;;;;0.45;0.45;;;;;;;;;;1854005;75;26724;-28
2021/11/29 12:42:43;;;;;;;0.78;0.50;;;;;;;;;;1854683;75;26633;-28
2021/11/29 12:45:14;;;;;;;0.50;0.50;;;;;;;;;;1858332;75;26320;-28
2021/11/29 12:47:43;;;;;;;0.60;0.60;;;;;;;;;;1858320;75;26323;-30
2021/11/29 12:50:28;;;;;;;0.53;0.53;;;;;;;;;;1849457;75;26335;-29
2021/11/29 12:53:09;;;;;;;0.60;0.60;;;;;;;;;;1858202;75;26286;-28
2021/11/29 12:55:37;;;;;;;0.50;0.50;;;;;;;;;;1853855;75;26296;-30
2021/11/29 12:58:09;;;;;;;0.50;0.50;;;;;;;;;;1857634;75;26375;-32
2021/11/29 13:00:38;;;;;;;0.60;0.60;;;;;;;;;;1850707;75;26327;-30
2021/11/29 13:03:05;;;;;;;2.42;0.40;;;;;;;;;;1860397;75;26304;-29
2021/11/29 13:05:37;;;;;;;1.12;0.70;;;;;;;;;;1856246;75;26690;-28
2021/11/29 13:08:06;;;;;;;1.12;0.60;;;;;;;;;;1848966;75;26257;-28
2021/11/29 13:10:50;;;;;;;3.65;0.68;;;;;;;;;;1844363;77;26265;-29
2021/11/29 13:13:35;;;;;;;1.57;0.50;;;;;;;;;;1855809;76;26253;-31
2021/11/29 13:16:04;;;;;;;0.62;0.60;;;;;;;;;;1861642;77;26313;-29
2021/11/29 13:18:52;;;;;;;0.98;0.60;;;;;;;;;;1847665;76;26264;-27
2021/11/29 13:21:24;;;;;;;1.52;0.68;;;;;;;;;;1860379;75;26936;-27
2021/11/29 13:23:56;;;;;;;0.50;0.50;;;;;;;;;;1853916;75;26249;-27
2021/11/29 13:26:25;;;;;;;1.95;0.50;;;;;;;;;;1854702;75;26314;-27
2021/11/29 13:28:54;;;;;;;0.40;0.40;;;;;;;;;;1854867;75;26264;-27
2021/11/29 13:31:28;;;;;;;0.50;0.50;;;;;;;;;;1840493;75;26265;-28
2021/11/29 13:33:58;;;;;;;0.50;0.50;;;;;;;;;;1850000;76;26261;-29
2021/11/29 13:36:29;;;;;;;0.50;0.50;;;;;;;;;;1854914;75;26336;-28
2021/11/29 13:38:58;;;;;;;6.80;0.40;;;;;;;;;;1855588;75;26249;-29
2021/11/29 13:41:26;;;;;;;1.75;0.50;;;;;;;;;;1857954;75;26660;-26
2021/11/29 13:43:54;;;;;;;0.45;0.45;;;;;;;;;;1860322;75;26394;-27
2021/11/29 13:46:21;;;;;;;0.33;0.33;;;;;;;;;;1856299;75;26344;-26
2021/11/29 13:48:48;;;;;;;0.50;0.50;;;;;;;;;;1858559;75;27361;-27
2021/11/29 13:51:16;;;;;;;0.50;0.50;;;;;;;;;;1855952;75;26300;-30
2021/11/29 13:53:45;;;;;;;0.50;0.50;;;;;;;;;;1844264;77;26262;-28
2021/11/29 13:56:14;;;;;;;0.40;0.40;;;;;;;;;;1833455;76;26257;-28
2021/11/29 13:58:41;;;;;;;0.88;0.60;;;;;;;;;;1836732;76;26296;-29
2021/11/29 14:01:18;;;;;;;3.92;0.68;;;;;;;;;;1840789;76;26480;-29
2021/11/29 14:03:46;;;;;;;0.50;0.50;;;;;;;;;;1838512;76;26368;-29
2021/11/29 14:06:15;;;;;;;0.50;0.50;;;;;;;;;;1848098;76;26562;-28
2021/11/29 14:08:45;;;;;;;1.72;0.50;;;;;;;;;;1843294;76;26262;-27
2021/11/29 14:11:15;;;;;;;0.40;0.40;;;;;;;;;;1830778;76;26406;-28
2021/11/29 14:13:49;;;;;;;0.30;0.30;;;;;;;;;;1833657;77;26315;-27
2021/11/29 14:16:21;;;;;;;0.47;0.47;;;;;;;;;;1842412;76;26265;-29
2021/11/29 14:18:56;;;;;;;0.37;0.37;;;;;;;;;;1847466;77;26284;-28
2021/11/29 14:21:27;;;;;;;0.40;0.40;;;;;;;;;;1846338;77;26298;-28
2021/11/29 14:23:54;;;;;;;0.40;0.40;;;;;;;;;;1841829;76;26362;-27
2021/11/29 14:26:30;;;;;;;0.40;0.40;;;;;;;;;;1848935;76;26253;-28
2021/11/29 14:28:59;;;;;;;0.55;0.40;;;;;;;;;;1847968;76;26844;-26
2021/11/29 14:31:27;;;;;;;0.42;0.30;;;;;;;;;;1841078;76;26285;-28
2021/11/29 14:33:55;;;;;;;1.25;0.50;;;;;;;;;;1837516;76;26343;-29
2021/11/29 14:36:27;;;;;;;1.30;0.40;;;;;;;;;;1838293;76;26737;-29
2021/11/29 14:38:54;;;;;;;0.47;0.47;;;;;;;;;;1838379;76;26261;-28
2021/11/29 14:41:22;;;;;;;0.40;0.40;;;;;;;;;;1844522;77;26811;-34
2021/11/29 14:43:53;;;;;;;0.60;0.53;;;;;;;;;;1839887;76;26273;-33
2021/11/29 14:46:25;;;;;;;1.65;0.30;;;;;;;;;;1840882;76;26357;-29
2021/11/29 14:49:10;;;;;;;0.40;0.40;;;;;;;;;;1838995;76;26257;-29
2021/11/29 14:51:37;;;;;;;0.40;0.37;;;;;;;;;;1835212;76;27959;-29
2021/11/29 14:54:05;;;;;;;1.77;0.40;;;;;;;;;;1842408;76;26317;-29